Time;durP1;ratioP1;P1;durP2;ratioP2;P2;SDS_P1;SDS_P2;PMS_P1;PMS_P2;Temp;Humidity;BMP_temperature;BMP_pressure;BME280_temperature;BME280_humidity;BME280_pressure;Samples;Min_cycle;Max_cycle;Signal;HPM_P1;HPM_P2
2021/10/11 00:01:41;;;;;;;21.65;13.40;;;;;;;7.01;60.61;101843.77;1728803;80;21066;-58
2021/10/11 00:04:07;;;;;;;23.18;14.38;;;;;;;6.96;60.80;101841.80;1728695;81;21784;-58
2021/10/11 00:06:35;;;;;;;22.17;14.63;;;;;;;6.92;60.82;101837.62;1745256;81;21059;-58
2021/10/11 00:09:02;;;;;;;23.25;13.43;;;;;;;6.86;60.78;101836.95;1737043;80;21086;-58
2021/10/11 00:11:28;;;;;;;22.55;12.53;;;;;;;6.80;60.90;101831.97;1744524;80;21098;-58
2021/10/11 00:13:56;;;;;;;22.98;14.55;;;;;;;6.73;61.14;101827.91;1739359;80;21596;-58
2021/10/11 00:16:23;;;;;;;23.75;14.05;;;;;;;6.68;61.42;101833.32;1734892;81;21029;-58
2021/10/11 00:18:49;;;;;;;18.45;12.07;;;;;;;6.64;61.38;101823.91;1722270;81;21587;-58
2021/10/11 00:21:16;;;;;;;18.82;12.43;;;;;;;6.65;61.37;101826.06;1734625;80;21038;-58
2021/10/11 00:23:42;;;;;;;20.85;12.05;;;;;;;6.73;61.28;101821.83;1730935;80;21342;-58
2021/10/11 00:28:08;;;;;;;23.55;13.38;;;;;;;6.87;61.18;101815.09;1785595;77;23368;-58
2021/10/11 00:30:34;;;;;;;25.43;13.80;;;;;;;6.84;61.33;101819.60;1766874;79;20987;-59
2021/10/11 00:33:03;;;;;;;20.85;13.18;;;;;;;6.83;61.39;101821.38;1765279;79;21869;-58
2021/10/11 00:35:32;;;;;;;20.72;14.23;;;;;;;6.84;61.44;101815.68;1737126;80;21042;-60
2021/10/11 00:37:59;;;;;;;20.75;13.55;;;;;;;6.83;61.47;101818.77;1763765;79;21023;-58
2021/10/11 00:40:25;;;;;;;17.48;12.47;;;;;;;6.81;61.56;101819.76;1762536;79;21969;-58
2021/10/11 00:42:52;;;;;;;21.37;12.73;;;;;;;6.76;61.70;101816.02;1764321;79;21090;-58
2021/10/11 00:45:18;;;;;;;22.77;13.62;;;;;;;6.75;61.68;101817.38;1761715;79;21146;-58
2021/10/11 00:47:44;;;;;;;20.68;12.75;;;;;;;6.70;61.65;101813.64;1767686;79;21113;-58
2021/10/11 00:50:11;;;;;;;23.05;13.22;;;;;;;6.67;61.67;101817.69;1770950;79;21070;-59
2021/10/11 00:52:38;;;;;;;21.68;13.40;;;;;;;6.62;61.75;101814.41;1764593;80;21552;-58
2021/10/11 00:55:06;;;;;;;23.32;13.18;;;;;;;6.54;61.92;101813.86;1736520;79;21053;-58
2021/10/11 00:57:32;;;;;;;22.80;14.23;;;;;;;6.47;62.08;101810.64;1762167;79;21196;-59
2021/10/11 00:59:59;;;;;;;24.87;12.78;;;;;;;6.41;62.16;101803.91;1739012;80;21067;-59
2021/10/11 01:02:25;;;;;;;18.50;11.90;;;;;;;6.39;62.24;101806.17;1734804;80;21019;-59
2021/10/11 01:04:51;;;;;;;22.48;13.78;;;;;;;6.41;62.16;101806.52;1731927;81;21052;-59
2021/10/11 01:07:18;;;;;;;20.45;12.65;;;;;;;6.47;62.02;101804.97;1732442;81;21588;-59
2021/10/11 01:09:45;;;;;;;21.90;12.75;;;;;;;6.54;61.90;101799.48;1760839;79;21142;-59
2021/10/11 01:12:11;;;;;;;19.17;12.45;;;;;;;6.57;61.83;101794.97;1762509;79;21121;-59
2021/10/11 01:14:38;;;;;;;24.65;13.70;;;;;;;6.59;61.90;101797.52;1731687;80;21078;-59
2021/10/11 01:17:04;;;;;;;25.08;13.30;;;;;;;6.57;61.97;101787.59;1761458;79;21046;-58
2021/10/11 01:19:31;;;;;;;22.05;13.88;;;;;;;6.54;62.10;101781.17;1734810;80;21092;-59
2021/10/11 01:21:58;;;;;;;23.70;14.35;;;;;;;6.51;62.14;101783.00;1764408;79;21155;-59
2021/10/11 01:24:24;;;;;;;24.30;13.93;;;;;;;6.50;62.13;101781.29;1741452;79;21038;-59
2021/10/11 01:26:50;;;;;;;21.52;14.03;;;;;;;6.48;62.05;101785.73;1756695;80;21145;-56
2021/10/11 01:29:17;;;;;;;18.45;13.10;;;;;;;6.42;62.05;101779.47;1733243;80;21043;-58
2021/10/11 01:31:43;;;;;;;22.02;14.00;;;;;;;6.35;62.01;101774.53;1760616;79;21069;-58
2021/10/11 01:34:10;;;;;;;28.57;14.30;;;;;;;6.29;62.04;101774.34;1729834;81;21061;-57
2021/10/11 01:36:36;;;;;;;22.77;13.58;;;;;;;6.22;62.14;101775.47;1759441;79;21508;-57
2021/10/11 01:39:06;;;;;;;20.52;13.70;;;;;;;6.18;62.27;101772.59;1723202;81;21039;-57
2021/10/11 01:41:32;;;;;;;22.75;14.25;;;;;;;6.13;62.39;101779.30;1763321;79;21027;-57
2021/10/11 01:43:59;;;;;;;19.35;12.43;;;;;;;6.06;62.68;101775.23;1759119;79;21288;-57
2021/10/11 01:46:26;;;;;;;19.90;12.70;;;;;;;5.99;62.95;101773.77;1762376;79;21129;-57
2021/10/11 01:48:52;;;;;;;18.05;12.15;;;;;;;5.99;62.99;101769.39;1763464;79;22119;-58
2021/10/11 01:51:19;;;;;;;18.10;11.65;;;;;;;6.06;62.81;101771.31;1762302;80;21035;-59
2021/10/11 01:53:46;;;;;;;19.02;11.35;;;;;;;6.12;62.68;101764.55;1737210;81;21345;-58
2021/10/11 01:56:12;;;;;;;23.38;12.80;;;;;;;6.19;62.67;101773.00;1729248;81;21059;-58
2021/10/11 01:58:38;;;;;;;20.82;12.98;;;;;;;6.21;62.58;101760.25;1739860;81;21138;-58
2021/10/11 02:01:05;;;;;;;25.82;14.70;;;;;;;6.23;62.44;101763.64;1748479;79;22249;-59
2021/10/11 02:03:32;;;;;;;21.60;12.70;;;;;;;6.21;62.36;101757.64;1764057;79;21031;-59
2021/10/11 02:05:58;;;;;;;23.47;13.65;;;;;;;6.22;62.22;101763.70;1762545;79;21039;-59
2021/10/11 02:08:25;;;;;;;21.07;13.13;;;;;;;6.20;62.07;101752.47;1761140;79;21091;-59
2021/10/11 02:10:51;;;;;;;25.55;13.55;;;;;;;6.17;61.98;101753.89;1749096;79;21094;-59
2021/10/11 02:13:18;;;;;;;20.30;12.70;;;;;;;6.14;61.86;101749.19;1758052;79;21031;-58
2021/10/11 02:15:45;;;;;;;21.23;13.72;;;;;;;6.12;61.91;101745.79;1762952;79;21494;-59
2021/10/11 02:18:11;;;;;;;21.05;12.45;;;;;;;6.08;61.57;101745.50;1762647;79;21082;-59
2021/10/11 02:20:38;;;;;;;18.70;12.80;;;;;;;6.01;61.71;101749.27;1737577;79;21093;-59
2021/10/11 02:23:05;;;;;;;20.70;13.25;;;;;;;5.97;61.68;101739.86;1761186;79;21623;-59
2021/10/11 02:25:33;;;;;;;22.90;12.65;;;;;;;5.91;61.66;101738.75;1757780;79;21086;-58
2021/10/11 02:27:59;;;;;;;22.05;12.03;;;;;;;5.84;61.63;101738.60;1760978;79;21083;-57
2021/10/11 02:30:26;;;;;;;20.12;13.80;;;;;;;5.79;61.68;101736.62;1755556;79;21002;-57
2021/10/11 02:32:52;;;;;;;19.50;12.85;;;;;;;5.72;61.80;101728.17;1756451;79;21094;-57
2021/10/11 02:35:20;;;;;;;24.90;14.15;;;;;;;5.66;62.12;101727.09;1755860;79;21073;-58
2021/10/11 02:37:47;;;;;;;24.92;13.43;;;;;;;5.66;62.37;101729.23;1749700;79;21075;-57
2021/10/11 02:40:13;;;;;;;20.65;12.18;;;;;;;5.73;62.26;101729.42;1755381;79;21106;-57
2021/10/11 02:42:40;;;;;;;20.85;12.05;;;;;;;5.80;62.18;101729.16;1755926;79;21105;-58
2021/10/11 02:45:07;;;;;;;20.43;13.32;;;;;;;5.84;62.28;101713.79;1754262;80;21066;-57
2021/10/11 02:47:33;;;;;;;23.50;13.25;;;;;;;5.87;62.35;101709.76;1755285;79;21168;-57
2021/10/11 02:50:00;;;;;;;21.55;13.05;;;;;;;5.90;62.38;101710.91;1748739;79;21485;-58
2021/10/11 02:52:28;;;;;;;27.50;14.80;;;;;;;5.89;62.15;101707.92;1747187;79;21030;-58
2021/10/11 02:54:54;;;;;;;24.47;14.63;;;;;;;5.87;62.05;101705.84;1757828;79;21059;-57
2021/10/11 02:57:21;;;;;;;22.58;13.90;;;;;;;5.83;62.18;101701.16;1728131;80;21924;-58
2021/10/11 02:59:47;;;;;;;22.82;12.93;;;;;;;5.78;62.19;101696.58;1718404;81;21215;-57
2021/10/11 03:02:13;;;;;;;20.60;13.28;;;;;;;5.72;62.21;101700.75;1749285;79;21584;-57
2021/10/11 03:04:40;;;;;;;20.88;12.95;;;;;;;5.67;62.46;101701.38;1757226;79;21051;-58
2021/10/11 03:07:06;;;;;;;19.90;12.80;;;;;;;5.63;62.52;101699.78;1753560;79;21607;-58
2021/10/11 03:09:32;;;;;;;19.42;13.68;;;;;;;5.56;62.62;101696.55;1754100;79;21092;-58
2021/10/11 03:11:59;;;;;;;24.90;14.05;;;;;;;5.49;62.70;101693.32;1726567;80;21299;-60
2021/10/11 03:14:25;;;;;;;25.80;14.03;;;;;;;5.34;62.97;101690.83;1757139;79;21706;-58
2021/10/11 03:16:52;;;;;;;25.70;14.90;;;;;;;5.16;63.56;101688.89;1756754;79;21000;-57
2021/10/11 03:19:18;;;;;;;25.43;13.58;;;;;;;5.08;63.95;101683.10;1755790;79;21058;-58
2021/10/11 03:21:44;;;;;;;21.50;12.73;;;;;;;5.16;64.12;101683.67;1756422;79;21277;-58
2021/10/11 03:24:11;;;;;;;22.00;12.53;;;;;;;5.26;64.10;101692.90;1758749;79;21149;-58
2021/10/11 03:26:37;;;;;;;19.50;12.60;;;;;;;5.36;64.11;101689.47;1754487;81;21069;-58
2021/10/11 03:29:03;;;;;;;26.87;14.23;;;;;;;5.42;64.12;101688.41;1752894;80;21025;-58
2021/10/11 03:31:30;;;;;;;24.32;12.98;;;;;;;5.47;64.20;101683.86;1726029;81;21088;-59
2021/10/11 03:33:56;;;;;;;21.30;14.47;;;;;;;5.49;64.07;101678.96;1751246;80;21507;-58
2021/10/11 03:36:23;;;;;;;20.08;13.05;;;;;;;5.50;63.90;101675.92;1749960;80;21148;-59
2021/10/11 03:38:50;;;;;;;20.68;13.30;;;;;;;5.50;63.43;101675.92;1728236;80;21855;-58
2021/10/11 03:41:16;;;;;;;20.97;13.18;;;;;;;5.45;63.09;101672.17;1750407;80;21055;-58
2021/10/11 03:43:43;;;;;;;19.48;12.73;;;;;;;5.42;62.99;101674.05;1731894;80;21069;-58
2021/10/11 03:46:09;;;;;;;23.77;14.87;;;;;;;5.38;62.75;101674.16;1750126;80;21114;-58
2021/10/11 03:48:36;;;;;;;18.55;12.58;;;;;;;5.33;62.61;101676.09;1725505;80;21197;-58
2021/10/11 03:51:02;;;;;;;18.73;12.23;;;;;;;5.26;62.77;101679.84;1750233;80;21134;-58
2021/10/11 03:53:29;;;;;;;24.40;12.53;;;;;;;5.20;63.01;101686.59;1727936;80;21489;-58
2021/10/11 03:55:55;;;;;;;21.70;10.60;;;;;;;5.13;63.39;101678.13;1730364;80;21133;-58
2021/10/11 03:58:22;;;;;;;20.72;11.25;;;;;;;5.08;63.87;101670.05;1730304;80;21737;-58
2021/10/11 04:00:49;;;;;;;21.00;11.28;;;;;;;5.10;63.85;101666.96;1732214;81;21037;-58
2021/10/11 04:03:15;;;;;;;17.67;11.40;;;;;;;5.17;63.52;101667.13;1749733;80;21011;-58
2021/10/11 04:05:41;;;;;;;18.77;11.90;;;;;;;5.21;63.45;101668.70;1746337;80;21103;-59
2021/10/11 04:08:14;;;;;;;19.45;11.50;;;;;;;5.28;63.39;101664.98;1746794;80;22263;-58
2021/10/11 04:10:42;;;;;;;18.92;11.22;;;;;;;5.28;63.25;101666.28;1751434;80;21920;-59
2021/10/11 04:13:05;;;;;;;18.57;11.93;;;;;;;5.27;63.06;101670.25;1723706;80;21113;-59
2021/10/11 04:15:32;;;;;;;19.57;11.83;;;;;;;5.21;62.78;101659.56;1744583;80;21130;-56
2021/10/11 04:17:59;;;;;;;19.85;11.90;;;;;;;5.17;62.73;101664.05;1752160;80;21059;-56
2021/10/11 04:20:25;;;;;;;20.10;11.22;;;;;;;5.14;62.83;101657.64;1749282;80;21067;-56
2021/10/11 04:22:52;;;;;;;22.00;11.97;;;;;;;5.11;62.83;101665.61;1751303;80;21094;-56
2021/10/11 04:25:18;;;;;;;19.45;11.35;;;;;;;5.07;63.00;101664.46;1745881;80;21237;-57
2021/10/11 04:27:45;;;;;;;24.72;12.78;;;;;;;5.00;63.24;101658.15;1743566;80;21023;-57
2021/10/11 04:30:12;;;;;;;18.30;11.50;;;;;;;4.96;63.53;101653.09;1752370;80;20980;-57
2021/10/11 04:32:38;;;;;;;24.05;11.75;;;;;;;4.92;63.82;101651.52;1747447;80;21059;-57
2021/10/11 04:35:07;;;;;;;18.62;11.60;;;;;;;4.93;63.99;101644.10;1750654;80;22622;-58
2021/10/11 04:37:33;;;;;;;18.45;12.93;;;;;;;4.92;63.84;101648.44;1751195;80;21211;-57
2021/10/11 04:40:00;;;;;;;17.67;12.78;;;;;;;4.95;63.62;101653.55;1752710;80;21071;-57
2021/10/11 04:42:26;;;;;;;18.77;12.13;;;;;;;5.05;63.69;101645.41;1750873;80;21087;-58
2021/10/11 04:44:53;;;;;;;20.37;13.90;;;;;;;5.10;63.91;101650.84;1753670;80;21060;-57
2021/10/11 04:47:19;;;;;;;20.23;13.28;;;;;;;5.14;64.09;101650.27;1748531;80;22134;-58
2021/10/11 04:49:45;;;;;;;21.65;12.37;;;;;;;5.18;64.33;101641.44;1749150;80;21512;-57
2021/10/11 04:52:12;;;;;;;18.30;11.83;;;;;;;5.24;64.32;101641.66;1729362;81;21536;-57
2021/10/11 04:54:39;;;;;;;21.27;13.43;;;;;;;5.26;64.17;101645.05;1743557;80;21103;-57
2021/10/11 04:57:05;;;;;;;23.70;15.08;;;;;;;5.30;63.94;101642.27;1748213;80;21100;-58
2021/10/11 04:59:32;;;;;;;25.52;15.03;;;;;;;5.31;63.80;101643.12;1750951;80;21051;-57
2021/10/11 05:01:58;;;;;;;21.97;15.28;;;;;;;5.27;63.94;101641.08;1749184;80;21288;-57
2021/10/11 05:04:24;;;;;;;27.40;15.08;;;;;;;5.23;64.05;101642.55;1751237;80;21052;-57
2021/10/11 05:06:50;;;;;;;26.12;15.18;;;;;;;5.17;64.21;101635.81;1725448;81;21147;-57
2021/10/11 05:09:17;;;;;;;25.05;15.78;;;;;;;5.10;64.34;101637.80;1746505;80;21026;-57
2021/10/11 05:11:43;;;;;;;26.85;15.80;;;;;;;5.00;64.51;101635.13;1745975;80;21039;-59
2021/10/11 05:14:09;;;;;;;20.82;14.28;;;;;;;4.95;64.83;101634.45;1752164;80;21196;-59
2021/10/11 05:16:37;;;;;;;20.92;14.30;;;;;;;4.94;64.93;101623.18;1727028;80;21675;-57
2021/10/11 05:19:03;;;;;;;21.62;14.20;;;;;;;5.01;65.05;101619.89;1754739;80;21042;-57
2021/10/11 05:21:31;;;;;;;22.85;14.18;;;;;;;5.18;64.98;101626.63;1751751;80;21388;-58
2021/10/11 05:23:58;;;;;;;21.35;13.55;;;;;;;5.33;64.90;101618.67;1748310;80;21083;-58
2021/10/11 05:26:26;;;;;;;21.12;14.05;;;;;;;5.48;64.91;101618.97;1747973;80;21160;-57
2021/10/11 05:28:53;;;;;;;18.70;13.25;;;;;;;5.61;65.26;101621.50;1753587;80;21121;-58
2021/10/11 05:31:20;;;;;;;23.42;13.55;;;;;;;5.71;65.47;101616.30;1723055;80;21755;-58
2021/10/11 05:33:46;;;;;;;21.77;14.68;;;;;;;5.81;65.48;101618.56;1754628;80;21041;-58
2021/10/11 05:36:13;;;;;;;29.75;15.40;;;;;;;5.91;65.49;101619.89;1726668;81;21634;-58
2021/10/11 05:38:39;;;;;;;25.17;15.30;;;;;;;6.01;65.39;101619.93;1753581;80;21144;-58
2021/10/11 05:41:06;;;;;;;27.37;14.93;;;;;;;6.09;65.15;101615.24;1753985;80;21098;-57
2021/10/11 05:43:32;;;;;;;24.75;15.63;;;;;;;6.18;64.96;101624.92;1726431;80;21150;-58
2021/10/11 05:45:58;;;;;;;29.32;14.95;;;;;;;6.26;64.96;101626.77;1752530;80;21129;-58
2021/10/11 05:48:24;;;;;;;24.80;14.28;;;;;;;6.31;64.75;101623.03;1750808;80;21041;-58
2021/10/11 05:50:51;;;;;;;20.82;13.93;;;;;;;6.37;64.75;101618.02;1748312;80;21807;-58
2021/10/11 05:53:17;;;;;;;22.70;13.62;;;;;;;6.47;64.61;101620.63;1743669;80;21481;-58
2021/10/11 05:55:44;;;;;;;19.95;13.13;;;;;;;6.65;64.32;101621.57;1757738;80;21181;-58
2021/10/11 05:58:11;;;;;;;15.80;11.93;;;;;;;6.79;63.83;101621.42;1755822;80;21040;-58
2021/10/11 06:00:37;;;;;;;22.60;13.60;;;;;;;6.92;62.67;101617.81;1752504;80;21555;-58
2021/10/11 06:03:04;;;;;;;25.60;13.55;;;;;;;6.99;61.84;101615.30;1725595;81;21188;-58
2021/10/11 06:05:30;;;;;;;24.10;13.00;;;;;;;7.07;61.25;101613.19;1751746;80;21500;-57
2021/10/11 06:07:56;;;;;;;23.87;14.70;;;;;;;7.14;60.65;101617.22;1749994;80;21059;-58
2021/10/11 06:10:23;;;;;;;29.67;14.23;;;;;;;7.22;60.15;101620.33;1752294;80;21091;-57
2021/10/11 06:12:49;;;;;;;18.98;13.90;;;;;;;7.27;59.86;101616.67;1750155;80;21032;-57
2021/10/11 06:15:16;;;;;;;22.17;13.48;;;;;;;7.31;59.79;101615.59;1752267;80;21257;-57
2021/10/11 06:17:43;;;;;;;21.42;13.90;;;;;;;7.36;59.72;101613.17;1753197;80;21098;-57
2021/10/11 06:20:10;;;;;;;22.40;15.45;;;;;;;7.41;59.45;101617.73;1755886;80;21352;-57
2021/10/11 06:22:37;;;;;;;19.12;12.55;;;;;;;7.42;59.26;101618.09;1753335;80;21077;-58
2021/10/11 06:25:06;;;;;;;25.77;14.73;;;;;;;7.47;59.19;101616.58;1751123;80;21536;-58
2021/10/11 06:27:34;;;;;;;23.45;15.00;;;;;;;7.51;58.91;101610.26;1724371;80;21102;-57
2021/10/11 06:30:00;;;;;;;19.95;13.62;;;;;;;7.56;58.61;101608.73;1753511;80;21009;-58
2021/10/11 06:32:26;;;;;;;20.65;13.30;;;;;;;7.58;58.54;101603.83;1748339;80;21091;-58
2021/10/11 06:34:53;;;;;;;20.00;12.93;;;;;;;7.62;58.54;101605.37;1734687;80;21074;-57
2021/10/11 06:37:19;;;;;;;19.67;13.72;;;;;;;7.67;58.71;101607.77;1749537;80;22079;-57
2021/10/11 06:39:46;;;;;;;24.02;14.65;;;;;;;7.69;58.58;101609.02;1752205;80;21578;-57
2021/10/11 06:42:12;;;;;;;20.77;13.75;;;;;;;7.73;58.29;101609.23;1749564;80;21130;-57
2021/10/11 06:44:39;;;;;;;24.67;14.30;;;;;;;7.78;57.89;101611.17;1748761;80;21043;-57
2021/10/11 06:47:05;;;;;;;23.90;13.78;;;;;;;7.82;57.66;101603.56;1748010;80;21653;-57
2021/10/11 06:49:33;;;;;;;25.68;14.35;;;;;;;7.87;57.56;101601.56;1752089;80;21035;-58
2021/10/11 06:51:59;;;;;;;20.17;14.13;;;;;;;7.92;57.36;101599.56;1751332;80;21571;-57
2021/10/11 06:54:27;;;;;;;27.42;15.20;;;;;;;7.96;57.02;101600.25;1748024;80;21038;-58
2021/10/11 06:56:53;;;;;;;22.30;13.25;;;;;;;8.00;56.75;101598.72;1726569;81;21729;-58
2021/10/11 06:59:21;;;;;;;22.35;14.50;;;;;;;8.06;56.60;101600.17;1749378;80;21090;-58
2021/10/11 07:01:48;;;;;;;20.05;13.40;;;;;;;8.13;56.50;101600.72;1748641;80;21078;-58
2021/10/11 07:04:14;;;;;;;21.42;14.00;;;;;;;8.21;56.37;101599.03;1748219;80;21505;-58
2021/10/11 07:06:41;;;;;;;23.95;14.80;;;;;;;8.26;56.23;101599.17;1743518;80;21577;-59
2021/10/11 07:09:09;;;;;;;22.17;13.68;;;;;;;8.30;56.11;101589.37;1749375;80;21008;-58
2021/10/11 07:11:37;;;;;;;22.20;12.85;;;;;;;8.41;55.76;101584.91;1746528;80;21084;-58
2021/10/11 07:14:04;;;;;;;22.25;13.32;;;;;;;8.54;55.31;101575.50;1748992;80;21044;-58
2021/10/11 07:16:31;;;;;;;20.40;13.35;;;;;;;8.69;55.07;101567.26;1746959;80;21159;-58
2021/10/11 07:18:58;;;;;;;23.27;14.25;;;;;;;8.83;54.71;101560.82;1727160;81;21139;-58
2021/10/11 07:21:24;;;;;;;23.98;14.23;;;;;;;8.95;54.39;101558.47;1750259;80;21032;-58
2021/10/11 07:23:50;;;;;;;34.33;14.18;;;;;;;9.05;54.12;101549.99;1722202;80;21015;-59
2021/10/11 07:26:17;;;;;;;18.48;12.33;;;;;;;9.15;54.12;101549.02;1750941;80;21692;-59
2021/10/11 07:28:43;;;;;;;20.55;13.20;;;;;;;9.26;53.89;101552.36;1729151;80;21044;-56
2021/10/11 07:31:09;;;;;;;18.55;13.28;;;;;;;9.35;53.93;101550.55;1751125;80;21075;-56
2021/10/11 07:33:36;;;;;;;22.25;13.50;;;;;;;9.43;53.89;101550.09;1751448;80;21047;-59
2021/10/11 07:36:03;;;;;;;23.25;14.73;;;;;;;9.52;53.76;101545.64;1745663;81;21582;-59
2021/10/11 07:38:30;;;;;;;17.67;12.93;;;;;;;9.60;53.49;101543.88;1746844;80;21106;-58
2021/10/11 07:40:57;;;;;;;25.15;13.83;;;;;;;9.64;52.84;101536.21;1751463;80;21580;-59
2021/10/11 07:43:24;;;;;;;25.05;14.25;;;;;;;9.68;52.73;101541.66;1723291;80;21055;-58
2021/10/11 07:45:50;;;;;;;23.85;14.13;;;;;;;9.72;52.51;101539.72;1725566;80;21033;-59
2021/10/11 07:48:17;;;;;;;20.10;12.78;;;;;;;9.76;52.52;101539.43;1750174;80;21037;-58
2021/10/11 07:50:43;;;;;;;19.98;12.73;;;;;;;9.78;52.09;101539.34;1756261;80;21053;-58
2021/10/11 07:53:09;;;;;;;19.67;12.85;;;;;;;9.81;51.64;101536.55;1723989;80;21048;-59
2021/10/11 07:55:36;;;;;;;19.85;12.53;;;;;;;9.84;51.01;101540.31;1754602;80;21032;-58
2021/10/11 07:58:03;;;;;;;22.45;12.78;;;;;;;9.88;51.10;101538.34;1753807;80;21025;-58
2021/10/11 08:00:31;;;;;;;18.25;13.18;;;;;;;9.90;50.71;101532.52;1752762;80;21043;-58
2021/10/11 08:02:57;;;;;;;22.17;13.13;;;;;;;9.85;50.36;101473.19;1751081;80;21627;-58
2021/10/11 08:05:24;;;;;;;21.95;13.22;;;;;;;9.90;50.75;101476.87;1750659;81;21205;-59
2021/10/11 08:07:51;;;;;;;19.52;10.82;;;;;;;9.96;50.87;101462.02;1728158;81;21568;-59
2021/10/11 08:10:17;;;;;;;21.30;13.45;;;;;;;10.02;50.71;101456.87;1749763;80;21053;-59
2021/10/11 08:12:43;;;;;;;19.40;11.57;;;;;;;10.10;50.63;101458.55;1751818;80;21110;-57
2021/10/11 08:15:10;;;;;;;21.60;11.40;;;;;;;10.18;50.55;101467.30;1752737;80;21101;-57
2021/10/11 08:17:38;;;;;;;20.55;12.55;;;;;;;10.27;50.51;101469.83;1747214;80;21496;-58
2021/10/11 08:20:06;;;;;;;22.70;12.88;;;;;;;10.37;50.38;101472.30;1747619;80;21082;-58
2021/10/11 08:22:32;;;;;;;17.50;11.33;;;;;;;10.47;50.20;101469.47;1725071;80;20981;-58
2021/10/11 08:24:59;;;;;;;21.10;13.08;;;;;;;10.56;50.10;101466.27;1722442;81;21049;-58
2021/10/11 08:27:25;;;;;;;19.52;12.33;;;;;;;10.66;49.70;101466.99;1751643;80;21505;-58
2021/10/11 08:29:52;;;;;;;22.32;13.28;;;;;;;10.73;49.27;101455.98;1759711;80;21070;-58
2021/10/11 08:32:24;;;;;;;20.60;13.38;;;;;;;10.83;49.33;101453.63;1754640;79;21067;-58
2021/10/11 08:34:51;;;;;;;23.38;14.03;;;;;;;10.92;49.30;101448.23;1727939;81;21033;-59
2021/10/11 08:37:18;;;;;;;18.23;12.15;;;;;;;10.97;49.06;101443.03;1756574;80;21118;-59
2021/10/11 08:39:44;;;;;;;18.55;12.60;;;;;;;11.04;48.46;101432.94;1755820;80;21070;-59
2021/10/11 08:42:11;;;;;;;20.62;12.37;;;;;;;11.14;48.65;101431.39;1752883;80;21087;-57
2021/10/11 08:44:39;;;;;;;26.20;12.55;;;;;;;11.23;48.88;101429.96;1750350;80;21067;-58
2021/10/11 08:47:09;;;;;;;21.87;13.28;;;;;;;11.33;48.45;101423.59;1752595;80;21118;-57
2021/10/11 08:49:48;;;;;;;19.82;12.37;;;;;;;11.44;48.09;101422.88;1755614;79;21067;-57
2021/10/11 08:52:14;;;;;;;19.73;12.65;;;;;;;11.56;48.18;101420.73;1707126;81;21051;-58
2021/10/11 08:54:41;;;;;;;22.95;14.87;;;;;;;11.67;47.72;101415.58;1757339;79;21152;-59
2021/10/11 08:57:26;;;;;;;20.60;13.50;;;;;;;11.76;47.21;101404.04;1750794;79;21961;-59
2021/10/11 08:59:53;;;;;;;22.00;12.60;;;;;;;11.83;46.85;101403.98;1717569;81;21099;-59
2021/10/11 09:02:20;;;;;;;17.87;12.95;;;;;;;11.88;46.79;101399.23;1749286;79;22351;-59
2021/10/11 09:04:53;;;;;;;23.12;13.70;;;;;;;11.93;46.79;101393.67;1709610;82;21047;-59
2021/10/11 09:07:29;;;;;;;21.40;12.88;;;;;;;11.99;46.72;101395.89;1724769;81;21031;-57
2021/10/11 09:09:58;;;;;;;18.82;12.18;;;;;;;12.02;46.33;101389.92;1751554;79;21086;-58
2021/10/11 09:12:27;;;;;;;20.27;13.10;;;;;;;12.06;46.27;101393.19;1753186;79;21056;-58
2021/10/11 09:15:14;;;;;;;18.62;11.70;;;;;;;12.14;46.04;101392.17;1723727;80;21086;-58
2021/10/11 09:17:46;;;;;;;20.48;11.75;;;;;;;12.24;45.69;101380.50;1746198;79;22019;-58
2021/10/11 09:20:19;;;;;;;20.92;12.90;;;;;;;12.36;45.88;101378.77;1745051;79;21996;-58
2021/10/11 09:22:47;;;;;;;16.48;11.57;;;;;;;12.47;45.76;101381.95;1725508;79;21118;-57
2021/10/11 09:25:15;;;;;;;20.02;10.88;;;;;;;12.58;45.28;101376.74;1752567;79;21111;-58
2021/10/11 09:27:46;;;;;;;14.85;10.13;;;;;;;12.67;45.16;101367.30;1747930;79;21128;-57
2021/10/11 09:30:15;;;;;;;16.50;10.28;;;;;;;12.77;45.38;101366.50;1747006;80;21529;-59
2021/10/11 09:32:42;;;;;;;18.45;10.30;;;;;;;12.92;45.10;101361.89;1748158;80;21190;-59
2021/10/11 09:35:18;;;;;;;15.68;8.83;;;;;;;13.06;44.26;101356.88;1744577;80;21603;-56
2021/10/11 09:37:51;;;;;;;15.30;8.80;;;;;;;13.18;44.12;101361.27;1740357;80;21062;-56
2021/10/11 09:40:16;;;;;;;13.40;8.43;;;;;;;13.33;43.68;101353.14;1754697;80;20989;-58
2021/10/11 09:42:42;;;;;;;12.73;7.85;;;;;;;13.42;43.64;101347.17;1749438;80;21959;-58
2021/10/11 09:45:09;;;;;;;12.23;7.85;;;;;;;13.53;43.04;101345.01;1752413;80;21125;-59
2021/10/11 09:47:41;;;;;;;11.48;8.08;;;;;;;13.64;42.93;101345.52;1744990;80;21821;-59
2021/10/11 09:50:08;;;;;;;14.53;7.67;;;;;;;13.74;43.19;101338.55;1750600;80;20976;-58
2021/10/11 09:52:36;;;;;;;14.53;7.80;;;;;;;13.85;42.50;101342.52;1732414;80;21031;-58
2021/10/11 09:55:04;;;;;;;11.93;7.42;;;;;;;13.96;42.30;101330.25;1753439;80;21028;-58
2021/10/11 09:57:31;;;;;;;11.08;7.17;;;;;;;14.05;41.23;101329.00;1751664;80;22096;-57
2021/10/11 10:00:03;;;;;;;10.20;6.12;;;;;;;14.16;41.40;101329.98;1749388;80;21470;-58
2021/10/11 10:02:32;;;;;;;8.43;5.55;;;;;;;14.26;40.76;101327.78;1749621;80;21927;-58
2021/10/11 10:05:01;;;;;;;9.23;5.50;;;;;;;14.39;40.53;101321.48;1744965;80;21067;-59
2021/10/11 10:07:28;;;;;;;12.82;6.37;;;;;;;14.54;40.05;101326.02;1730725;81;21118;-59
2021/10/11 10:09:55;;;;;;;11.68;5.60;;;;;;;14.66;40.03;101324.56;1748764;80;21153;-59
2021/10/11 10:12:22;;;;;;;9.63;5.28;;;;;;;14.82;39.46;101320.64;1742934;80;21057;-57
2021/10/11 10:15:02;;;;;;;11.97;6.90;;;;;;;14.93;39.31;101311.33;1748818;80;21006;-59
2021/10/11 10:17:32;;;;;;;8.55;5.00;;;;;;;15.02;38.90;101317.16;1750910;80;21119;-57
2021/10/11 10:20:11;;;;;;;9.30;5.42;;;;;;;15.12;38.38;101307.95;1742548;80;21068;-58
2021/10/11 10:22:46;;;;;;;12.60;6.17;;;;;;;15.19;38.72;101312.25;1746515;80;21157;-58
2021/10/11 10:25:12;;;;;;;12.20;5.65;;;;;;;15.28;38.65;101302.67;1731960;81;21054;-58
2021/10/11 10:27:40;;;;;;;8.38;5.70;;;;;;;15.35;38.01;101298.05;1697881;81;21053;-58
2021/10/11 10:30:22;;;;;;;11.97;5.60;;;;;;;15.44;37.77;101303.53;1726340;81;21056;-58
2021/10/11 10:32:55;;;;;;;10.10;5.70;;;;;;;15.51;37.73;101296.23;1745357;80;21525;-58
2021/10/11 10:35:21;;;;;;;8.33;5.87;;;;;;;15.59;37.26;101294.25;1746010;80;21086;-58
2021/10/11 10:37:48;;;;;;;8.88;5.75;;;;;;;15.65;37.50;101281.78;1748348;80;21003;-58
2021/10/11 10:40:18;;;;;;;9.73;5.78;;;;;;;15.73;37.96;101284.58;1751648;80;21059;-58
2021/10/11 10:42:47;;;;;;;12.03;5.95;;;;;;;15.84;37.38;101277.55;1752049;80;21581;-58
2021/10/11 10:45:18;;;;;;;8.43;5.42;;;;;;;15.92;37.63;101274.56;1750738;80;21080;-59
2021/10/11 10:47:44;;;;;;;16.37;5.97;;;;;;;15.99;37.80;101273.53;1750589;80;21129;-57
2021/10/11 10:50:22;;;;;;;10.08;5.37;;;;;;;16.06;37.92;101268.02;1736582;80;21023;-60
2021/10/11 10:52:51;;;;;;;12.13;5.28;;;;;;;16.13;37.09;101263.83;1742122;80;21546;-58
2021/10/11 10:55:17;;;;;;;9.38;5.40;;;;;;;16.16;37.07;101257.42;1727194;80;21013;-59
2021/10/11 10:57:44;;;;;;;9.90;5.55;;;;;;;16.20;36.78;101250.84;1741029;80;21070;-59
2021/10/11 11:00:16;;;;;;;11.55;5.83;;;;;;;16.20;37.06;101242.88;1748065;80;21093;-59
2021/10/11 11:02:49;;;;;;;13.20;5.30;;;;;;;16.19;37.80;101240.36;1752151;80;21273;-58
2021/10/11 11:05:18;;;;;;;11.35;5.25;;;;;;;16.20;37.38;101235.41;1746587;80;21008;-58
2021/10/11 11:07:47;;;;;;;12.43;6.55;;;;;;;16.23;36.84;101237.30;1751951;81;21027;-59
2021/10/11 11:10:19;;;;;;;8.48;4.87;;;;;;;16.25;36.99;101224.70;1755116;80;21039;-58
2021/10/11 11:12:59;;;;;;;10.90;6.28;;;;;;;16.27;37.83;101228.55;1745761;80;23064;-58
2021/10/11 11:15:37;;;;;;;8.55;5.00;;;;;;;16.32;37.70;101220.54;1749609;80;21686;-57
2021/10/11 11:18:15;;;;;;;10.78;6.42;;;;;;;16.42;37.69;101220.51;1750506;80;21113;-57
2021/10/11 11:20:43;;;;;;;9.40;5.55;;;;;;;16.50;37.60;101208.69;1733911;80;21114;-58